createdAt,value
2022-11-14T00:01:26.036Z,9.20
2022-11-14T00:03:53.957Z,9.20
2022-11-14T00:06:21.045Z,9.20
2022-11-14T00:08:47.914Z,9.20
2022-11-14T00:11:17.911Z,9.20
2022-11-14T00:13:46.529Z,9.20
2022-11-14T00:16:15.487Z,9.20
2022-11-14T00:18:45.435Z,9.20
2022-11-14T00:21:12.406Z,9.20
2022-11-14T00:23:42.373Z,9.20
2022-11-14T00:26:12.405Z,9.20
2022-11-14T00:28:40.344Z,9.20
2022-11-14T00:31:12.559Z,9.20
2022-11-14T00:33:39.572Z,9.20
2022-11-14T00:36:07.659Z,9.20
2022-11-14T00:38:35.663Z,9.20
2022-11-14T00:41:05.731Z,9.20
2022-11-14T00:43:34.621Z,9.20
2022-11-14T00:46:01.712Z,9.20
2022-11-14T00:48:30.184Z,9.20
2022-11-14T00:50:58.222Z,9.10
2022-11-14T00:53:26.133Z,9.10
2022-11-14T00:55:54.987Z,9.10
2022-11-14T00:58:25.097Z,9.10
2022-11-14T01:00:54.064Z,9.10
2022-11-14T01:03:21.134Z,9.10
2022-11-14T01:05:54.031Z,9.10
2022-11-14T01:08:24.007Z,9.00
2022-11-14T01:10:52.883Z,8.90
2022-11-14T01:13:20.986Z,8.80
2022-11-14T01:15:49.575Z,8.70
2022-11-14T01:18:20.121Z,8.60
2022-11-14T01:20:49.740Z,8.50
2022-11-14T01:23:17.746Z,8.50
2022-11-14T01:25:47.674Z,8.40
2022-11-14T01:28:19.495Z,8.40
2022-11-14T01:30:48.437Z,8.20
2022-11-14T01:33:16.445Z,8.20
2022-11-14T01:35:44.339Z,8.10
2022-11-14T01:38:14.775Z,8.00
2022-11-14T01:40:43.427Z,7.90
2022-11-14T01:43:24.744Z,7.90
2022-11-14T01:45:59.534Z,7.90
2022-11-14T01:48:43.151Z,7.90
2022-11-14T01:51:45.683Z,7.90
2022-11-14T01:54:21.106Z,7.90
2022-11-14T01:56:59.206Z,7.90
2022-11-14T01:59:33.200Z,7.80
2022-11-14T02:02:05.108Z,7.80
2022-11-14T02:04:39.259Z,7.70
2022-11-14T02:07:10.071Z,7.70
2022-11-14T02:09:41.131Z,7.60
2022-11-14T02:12:12.526Z,7.60
2022-11-14T02:14:42.436Z,7.60
2022-11-14T02:20:13.581Z,7.60
2022-11-14T02:22:43.110Z,7.70
2022-11-14T02:25:13.053Z,7.70
2022-11-14T02:27:42.330Z,7.70
2022-11-14T02:30:23.579Z,7.80
2022-11-14T02:35:42.654Z,7.80
2022-11-14T02:38:13.336Z,7.70
2022-11-14T02:40:43.707Z,7.70
2022-11-14T02:43:13.617Z,7.60
2022-11-14T02:45:40.508Z,7.60
2022-11-14T02:48:08.416Z,7.60
2022-11-14T02:50:35.430Z,7.60
2022-11-14T02:53:05.432Z,7.60
2022-11-14T02:55:32.438Z,7.50
2022-11-14T02:57:59.555Z,7.50
2022-11-14T03:00:26.821Z,7.40
2022-11-14T03:02:54.296Z,7.40
2022-11-14T03:05:21.367Z,7.30
2022-11-14T03:07:48.738Z,7.20
2022-11-14T03:10:15.642Z,7.00
2022-11-14T03:12:42.571Z,6.90
2022-11-14T03:15:10.328Z,6.80
2022-11-14T03:17:37.423Z,6.80
2022-11-14T03:20:04.989Z,6.70
2022-11-14T03:22:34.882Z,6.50
2022-11-14T03:25:02.942Z,6.30
2022-11-14T03:27:30.826Z,6.20
2022-11-14T03:29:58.790Z,6.00
2022-11-14T03:32:44.474Z,5.90
2022-11-14T03:35:12.407Z,5.70
2022-11-14T03:37:39.420Z,5.60
2022-11-14T03:40:07.073Z,5.50
2022-11-14T03:42:39.963Z,5.40
2022-11-14T03:45:10.435Z,5.30
2022-11-14T03:47:40.497Z,5.30
2022-11-14T03:50:08.677Z,5.20
2022-11-14T03:52:37.494Z,5.20
2022-11-14T03:55:07.806Z,5.10
2022-11-14T03:57:37.714Z,5.10
2022-11-14T04:00:05.104Z,5.00
2022-11-14T04:02:32.085Z,5.00
2022-11-14T04:05:02.084Z,5.00
2022-11-14T04:07:30.234Z,4.90
2022-11-14T04:09:58.264Z,4.80
2022-11-14T04:12:26.396Z,4.80
2022-11-14T04:14:56.451Z,4.70
2022-11-14T04:17:24.435Z,4.70
2022-11-14T04:19:54.351Z,4.60
2022-11-14T04:22:24.342Z,4.60
2022-11-14T04:24:52.308Z,4.60
2022-11-14T04:27:20.262Z,4.60
2022-11-14T04:29:50.278Z,4.70
2022-11-14T04:32:18.176Z,4.70
2022-11-14T04:34:45.206Z,4.70
2022-11-14T04:37:13.086Z,4.80
2022-11-14T04:39:43.154Z,4.80
2022-11-14T04:42:10.172Z,4.80
2022-11-14T04:44:43.280Z,4.80
2022-11-14T04:47:10.315Z,4.80
2022-11-14T04:49:37.151Z,4.80
2022-11-14T04:52:05.119Z,4.80
2022-11-14T04:54:34.066Z,4.80
2022-11-14T04:57:02.007Z,4.80
2022-11-14T04:59:28.964Z,4.70
2022-11-14T05:01:57.866Z,4.70
2022-11-14T05:04:24.732Z,4.60
2022-11-14T05:06:53.862Z,4.60
2022-11-14T05:09:20.737Z,4.50
2022-11-14T05:11:47.610Z,4.40
2022-11-14T05:14:14.711Z,4.40
2022-11-14T05:16:41.659Z,4.30
2022-11-14T05:19:08.603Z,4.30
2022-11-14T05:21:35.513Z,4.30
2022-11-14T05:24:04.672Z,4.30
2022-11-14T05:26:31.662Z,4.30
2022-11-14T05:28:59.601Z,4.30
2022-11-14T05:31:28.550Z,4.30
2022-11-14T05:34:03.628Z,4.20
2022-11-14T05:36:32.531Z,4.10
2022-11-14T05:39:00.412Z,4.10
2022-11-14T05:41:30.449Z,4.00
2022-11-14T05:44:00.308Z,4.00
2022-11-14T05:46:30.296Z,3.90
2022-11-14T05:48:57.169Z,3.90
2022-11-14T05:51:24.282Z,3.90
2022-11-14T05:53:51.439Z,3.90
2022-11-14T05:56:19.506Z,3.90
2022-11-14T05:58:48.369Z,4.00
2022-11-14T06:01:19.894Z,3.90
2022-11-14T06:03:49.603Z,3.90
2022-11-14T06:06:19.369Z,3.90
2022-11-14T06:08:48.956Z,3.90
2022-11-14T06:11:20.192Z,3.90
2022-11-14T06:13:49.278Z,3.90
2022-11-14T06:16:19.680Z,3.90
2022-11-14T06:18:48.945Z,3.80
2022-11-14T06:21:21.495Z,3.80
2022-11-14T06:23:49.799Z,3.80
2022-11-14T06:26:30.414Z,3.70
2022-11-14T06:29:00.299Z,3.60
2022-11-14T06:31:27.959Z,3.60
2022-11-14T06:33:56.914Z,3.50
2022-11-14T06:36:27.135Z,3.50
2022-11-14T06:38:54.157Z,3.50
2022-11-14T06:41:23.708Z,3.50
2022-11-14T06:43:54.885Z,3.50
2022-11-14T06:46:24.887Z,3.50
2022-11-14T06:48:52.739Z,3.50
2022-11-14T06:51:19.848Z,3.40
2022-11-14T06:53:47.773Z,3.40
2022-11-14T06:56:20.798Z,3.40
2022-11-14T06:58:51.090Z,3.40
2022-11-14T07:01:28.745Z,3.40
2022-11-14T07:03:58.790Z,3.50
2022-11-14T07:06:31.003Z,3.50
2022-11-14T07:09:01.011Z,3.50
2022-11-14T07:11:29.760Z,3.60
2022-11-14T07:14:01.130Z,3.60
2022-11-14T07:16:35.877Z,3.80
2022-11-14T07:19:04.890Z,4.00
2022-11-14T07:21:33.808Z,4.30
2022-11-14T07:24:04.431Z,4.60
2022-11-14T07:26:34.485Z,5.10
2022-11-14T07:29:02.733Z,5.60
2022-11-14T07:31:31.672Z,6.10
2022-11-14T07:34:01.674Z,6.70
2022-11-14T07:36:30.614Z,7.30
2022-11-14T07:38:58.665Z,7.80
2022-11-14T07:41:27.611Z,8.40
2022-11-14T07:43:54.497Z,9.00
2022-11-14T07:46:21.412Z,9.70
2022-11-14T07:48:48.373Z,10.20
2022-11-14T07:51:19.128Z,10.70
2022-11-14T07:53:47.239Z,11.30
2022-11-14T07:56:17.252Z,11.80
2022-11-14T07:58:44.249Z,12.20
2022-11-14T08:01:13.190Z,12.60
2022-11-14T08:03:46.000Z,13.10
2022-11-14T08:06:16.176Z,13.50
2022-11-14T08:08:44.347Z,13.80
2022-11-14T08:11:12.391Z,14.10
2022-11-14T08:13:39.633Z,14.50
2022-11-14T08:16:14.130Z,14.80
2022-11-14T08:18:42.399Z,15.20
2022-11-14T08:21:09.283Z,15.50
2022-11-14T08:23:37.289Z,15.50
2022-11-14T08:26:05.349Z,15.90
2022-11-14T08:28:32.605Z,16.10
2022-11-14T08:31:02.445Z,16.30
2022-11-14T08:33:31.049Z,16.50
2022-11-14T08:36:05.956Z,16.80
2022-11-14T08:38:36.101Z,17.20
2022-11-14T08:41:05.033Z,17.20
2022-11-14T08:43:34.035Z,17.40
2022-11-14T08:46:04.664Z,17.70
2022-11-14T08:48:32.863Z,18.10
2022-11-14T08:51:05.561Z,18.20
2022-11-14T08:53:33.364Z,18.50
2022-11-14T08:56:01.357Z,19.00
2022-11-14T08:58:33.737Z,19.20
2022-11-14T09:01:03.495Z,19.30
2022-11-14T09:03:30.642Z,19.40
2022-11-14T09:05:58.123Z,19.40
2022-11-14T09:08:32.507Z,19.40
2022-11-14T09:11:08.396Z,19.30
2022-11-14T09:13:37.859Z,19.70
2022-11-14T09:16:05.020Z,19.90
2022-11-14T09:18:35.108Z,20.00
2022-11-14T09:21:07.820Z,20.20
2022-11-14T09:23:38.026Z,20.30
2022-11-14T09:26:09.301Z,20.20
2022-11-14T09:28:38.552Z,20.00
2022-11-14T09:31:13.513Z,19.80
2022-11-14T09:33:40.759Z,19.70
2022-11-14T09:36:17.165Z,19.90
2022-11-14T09:38:46.577Z,19.90
2022-11-14T09:41:26.420Z,20.10
2022-11-14T09:44:01.392Z,20.40
2022-11-14T09:46:37.353Z,20.40
2022-11-14T09:49:15.457Z,20.50
2022-11-14T09:51:50.394Z,20.80
2022-11-14T09:54:41.142Z,21.30
2022-11-14T09:57:18.917Z,21.50
2022-11-14T09:59:49.313Z,21.30
2022-11-14T10:02:52.677Z,20.90
2022-11-14T10:05:57.078Z,20.90
2022-11-14T10:08:32.115Z,20.60
2022-11-14T10:11:05.607Z,20.20
2022-11-14T10:14:14.946Z,20.00
2022-11-14T10:17:20.753Z,20.40
2022-11-14T10:20:20.154Z,21.00
2022-11-14T10:23:14.959Z,21.40
2022-11-14T10:26:21.665Z,20.70
2022-11-14T10:28:55.659Z,20.60
2022-11-14T10:32:02.171Z,20.60
2022-11-14T10:34:50.295Z,20.20
2022-11-14T10:37:55.671Z,19.60
2022-11-14T10:40:25.894Z,19.20
2022-11-14T10:43:06.042Z,18.90
2022-11-14T10:45:38.021Z,18.90
2022-11-14T10:48:14.922Z,18.90
2022-11-14T10:51:02.320Z,19.10
2022-11-14T10:53:51.266Z,19.30
2022-11-14T10:56:20.283Z,19.20
2022-11-14T10:58:50.117Z,19.10
2022-11-14T11:01:39.514Z,18.60
2022-11-14T11:04:26.359Z,18.30
2022-11-14T11:07:41.648Z,17.80
2022-11-14T11:10:39.746Z,17.20
2022-11-14T11:13:13.968Z,16.90
2022-11-14T11:15:55.151Z,16.90
2022-11-14T11:18:36.806Z,16.50
2022-11-14T11:21:15.576Z,16.00
2022-11-14T11:23:58.330Z,15.70
2022-11-14T11:26:32.816Z,15.60
2022-11-14T11:29:09.927Z,15.30
2022-11-14T11:31:56.636Z,14.60
2022-11-14T11:34:31.380Z,13.60
2022-11-14T11:37:15.561Z,12.80
2022-11-14T11:39:49.379Z,12.00
2022-11-14T11:42:58.747Z,11.30
2022-11-14T11:45:19.567Z,10.90
2022-11-14T11:47:58.695Z,10.50
2022-11-14T11:50:26.736Z,10.30
2022-11-14T11:53:12.659Z,9.90
2022-11-14T11:55:52.536Z,9.80
2022-11-14T11:58:43.287Z,9.50
2022-11-14T12:01:16.392Z,9.20
2022-11-14T12:03:50.838Z,9.00
2022-11-14T12:06:25.950Z,8.90
2022-11-14T12:09:18.565Z,8.80
2022-11-14T12:11:57.981Z,8.70
2022-11-14T12:14:34.353Z,8.60
2022-11-14T12:17:41.308Z,8.60
2022-11-14T12:20:17.286Z,8.50
2022-11-14T12:23:02.360Z,8.40
2022-11-14T12:25:57.578Z,8.20
2022-11-14T12:28:30.512Z,8.10
2022-11-14T12:31:03.352Z,8.00
2022-11-14T12:33:36.008Z,7.80
2022-11-14T12:36:11.559Z,7.70
2022-11-14T12:38:50.920Z,7.50
2022-11-14T12:41:34.960Z,7.50
2022-11-14T12:44:27.966Z,7.40
2022-11-14T12:47:17.006Z,7.30
2022-11-14T12:49:53.118Z,7.20
2022-11-14T12:52:46.401Z,7.10
2022-11-14T12:55:26.314Z,7.10
2022-11-14T12:58:23.485Z,7.10
2022-11-14T13:00:53.513Z,7.10
2022-11-14T13:03:46.492Z,7.10
2022-11-14T13:06:50.258Z,7.00
2022-11-14T13:09:35.953Z,6.80
2022-11-14T13:12:50.022Z,6.70
2022-11-14T13:15:42.459Z,6.70
2022-11-14T13:18:36.631Z,6.80
2022-11-14T13:21:25.159Z,6.70
2022-11-14T13:23:58.345Z,6.70
2022-11-14T13:26:31.023Z,6.80
2022-11-14T13:29:00.332Z,6.80
2022-11-14T13:31:46.142Z,6.80
2022-11-14T13:34:52.291Z,6.80
2022-11-14T13:37:31.157Z,6.70
2022-11-14T13:40:35.276Z,6.70
2022-11-14T13:43:41.340Z,6.70
2022-11-14T13:46:42.591Z,6.70
2022-11-14T13:49:28.154Z,6.60
2022-11-14T13:51:56.573Z,6.60
2022-11-14T13:54:25.585Z,6.60
2022-11-14T13:57:08.662Z,6.60
2022-11-14T14:00:02.896Z,6.50
2022-11-14T14:02:52.860Z,6.50
2022-11-14T14:05:30.406Z,6.50
2022-11-14T14:08:14.644Z,6.50
2022-11-14T14:11:20.242Z,6.50
2022-11-14T14:14:12.443Z,6.50
2022-11-14T14:17:07.292Z,6.60
2022-11-14T14:19:52.335Z,6.60
2022-11-14T14:22:42.092Z,6.60
2022-11-14T14:25:10.991Z,6.60
2022-11-14T14:28:06.932Z,6.60
2022-11-14T14:30:37.150Z,6.60
2022-11-14T14:33:19.495Z,6.50
2022-11-14T14:35:51.892Z,6.50
2022-11-14T14:38:29.385Z,6.40
2022-11-14T14:40:59.761Z,6.40
2022-11-14T14:43:33.713Z,6.30
2022-11-14T14:46:02.229Z,6.40
2022-11-14T14:48:33.858Z,6.30
2022-11-14T14:51:05.269Z,6.40
2022-11-14T14:53:36.573Z,6.30
2022-11-14T14:56:17.084Z,6.30
2022-11-14T14:58:45.060Z,6.20
2022-11-14T15:01:35.507Z,6.20
2022-11-14T15:04:13.811Z,6.20
2022-11-14T15:06:46.429Z,6.20
2022-11-14T15:09:27.988Z,6.20
2022-11-14T15:11:59.650Z,6.20
2022-11-14T15:14:33.151Z,6.20
2022-11-14T15:17:00.684Z,6.20
2022-11-14T15:19:43.911Z,6.30
2022-11-14T15:22:19.038Z,6.30
2022-11-14T15:25:19.601Z,6.30
2022-11-14T15:27:53.463Z,6.30
2022-11-14T15:30:32.223Z,6.20
2022-11-14T15:33:03.859Z,6.30
2022-11-14T15:35:36.924Z,6.30
2022-11-14T15:38:41.956Z,6.30
2022-11-14T15:41:24.751Z,6.30
2022-11-14T15:43:55.394Z,6.40
2022-11-14T15:46:35.442Z,6.40
2022-11-14T15:49:27.191Z,6.40
2022-11-14T15:52:03.669Z,6.40
2022-11-14T15:54:35.440Z,6.40
2022-11-14T15:57:17.586Z,6.40
2022-11-14T15:59:45.596Z,6.40
2022-11-14T16:02:25.641Z,6.50
2022-11-14T16:04:53.457Z,6.50
2022-11-14T16:07:23.030Z,6.60
2022-11-14T16:09:53.300Z,6.60
2022-11-14T16:12:21.444Z,6.50
2022-11-14T16:14:48.400Z,6.50
2022-11-14T16:17:21.345Z,6.50
2022-11-14T16:19:50.294Z,6.40
2022-11-14T16:22:18.585Z,6.40
2022-11-14T16:24:47.641Z,6.50
2022-11-14T16:27:15.491Z,6.50
2022-11-14T16:29:42.494Z,6.50
2022-11-14T16:32:12.564Z,6.50
2022-11-14T16:34:39.586Z,6.60
2022-11-14T16:37:12.127Z,6.60
2022-11-14T16:39:45.072Z,6.60
2022-11-14T16:42:15.236Z,6.60
2022-11-14T16:44:49.235Z,6.50
2022-11-14T16:47:20.615Z,6.60
2022-11-14T16:49:47.573Z,6.50
2022-11-14T16:52:16.924Z,6.60
2022-11-14T16:54:46.952Z,6.60
2022-11-14T16:57:17.130Z,6.60
2022-11-14T16:59:47.200Z,6.60
2022-11-14T17:02:28.599Z,6.70
2022-11-14T17:04:55.627Z,6.70
2022-11-14T17:07:25.678Z,6.70
2022-11-14T17:09:55.660Z,6.70
2022-11-14T17:12:23.704Z,6.70
2022-11-14T17:14:53.154Z,6.70
2022-11-14T17:17:23.248Z,6.70
2022-11-14T17:19:53.211Z,6.70
2022-11-14T17:22:21.142Z,6.70
2022-11-14T17:24:51.119Z,6.80
2022-11-14T17:27:18.096Z,6.80
2022-11-14T17:29:48.447Z,6.80
2022-11-14T17:32:17.460Z,6.80
2022-11-14T17:34:50.984Z,6.70
2022-11-14T17:37:18.919Z,6.70
2022-11-14T17:39:46.808Z,6.80
2022-11-14T17:42:15.752Z,6.80
2022-11-14T17:44:45.722Z,6.80
2022-11-14T17:47:12.671Z,6.80
2022-11-14T17:49:39.655Z,6.80
2022-11-14T17:52:09.607Z,6.90
2022-11-14T17:54:37.932Z,6.80
2022-11-14T17:57:07.992Z,6.90
2022-11-14T17:59:38.958Z,6.80
2022-11-14T18:02:05.886Z,6.80
2022-11-14T18:04:32.870Z,6.80
2022-11-14T18:07:02.934Z,6.80
2022-11-14T18:09:32.911Z,6.80
2022-11-14T18:12:03.197Z,6.80
2022-11-14T18:14:30.123Z,6.80
2022-11-14T18:17:12.180Z,6.70
2022-11-14T18:19:40.112Z,6.70
2022-11-14T18:22:07.204Z,6.80
2022-11-14T18:24:34.142Z,6.80
2022-11-14T18:27:01.592Z,6.80
2022-11-14T18:29:28.643Z,6.90
2022-11-14T18:31:55.550Z,6.90
2022-11-14T18:34:22.585Z,6.90
2022-11-14T18:36:49.668Z,6.80
2022-11-14T18:39:16.613Z,6.90
2022-11-14T18:41:43.670Z,6.90
2022-11-14T18:44:10.581Z,6.90
2022-11-14T18:46:39.733Z,6.90
2022-11-14T18:49:09.747Z,6.90
2022-11-14T18:51:42.342Z,7.00
2022-11-14T18:54:14.492Z,7.00
2022-11-14T18:56:41.877Z,7.00
2022-11-14T18:59:09.303Z,7.00
2022-11-14T19:01:36.467Z,7.10
2022-11-14T19:04:06.056Z,7.10
2022-11-14T19:06:35.791Z,7.10
2022-11-14T19:09:11.183Z,7.10
2022-11-14T19:11:57.608Z,7.10
2022-11-14T19:14:24.859Z,7.10
2022-11-14T19:16:51.689Z,7.10
2022-11-14T19:19:18.547Z,7.10
2022-11-14T19:21:49.773Z,7.10
2022-11-14T19:24:16.758Z,7.10
2022-11-14T19:26:45.058Z,7.10
2022-11-14T19:29:13.808Z,7.10
2022-11-14T19:31:42.011Z,7.20
2022-11-14T19:34:09.762Z,7.20
2022-11-14T19:39:23.826Z,7.10
2022-11-14T19:41:50.732Z,7.20
2022-11-14T19:44:17.604Z,7.10
2022-11-14T19:46:47.799Z,7.20
2022-11-14T19:49:15.147Z,7.20
2022-11-14T19:51:42.301Z,7.20
2022-11-14T19:54:10.916Z,7.20
2022-11-14T19:56:38.455Z,7.20
2022-11-14T19:59:11.095Z,7.30
2022-11-14T20:01:42.368Z,7.30
2022-11-14T20:04:13.066Z,7.30
2022-11-14T20:06:41.716Z,7.40
2022-11-14T20:09:10.034Z,7.40
2022-11-14T20:11:37.508Z,7.40
2022-11-14T20:14:05.696Z,7.40
2022-11-14T20:16:35.148Z,7.50
2022-11-14T20:19:03.022Z,7.50
2022-11-14T20:21:33.216Z,7.50
2022-11-14T20:24:00.308Z,7.50
2022-11-14T20:26:27.760Z,7.60
2022-11-14T20:28:55.770Z,7.60
2022-11-14T20:31:28.527Z,7.60
2022-11-14T20:33:56.342Z,7.60
2022-11-14T20:36:26.139Z,7.70
2022-11-14T20:38:54.493Z,7.70
2022-11-14T20:41:21.915Z,7.80
2022-11-14T20:43:48.909Z,7.80
2022-11-14T20:46:21.663Z,7.90
2022-11-14T20:48:49.212Z,7.90
2022-11-14T20:51:21.658Z,8.00
2022-11-14T20:53:52.947Z,8.00
2022-11-14T20:56:21.648Z,8.10
2022-11-14T20:58:51.828Z,8.10
2022-11-14T21:01:19.160Z,8.10
2022-11-14T21:03:46.623Z,8.10
2022-11-14T21:06:14.918Z,8.20
2022-11-14T21:08:42.259Z,8.20
2022-11-14T21:11:13.578Z,8.20
2022-11-14T21:13:56.174Z,8.20
2022-11-14T21:16:27.021Z,8.20
2022-11-14T21:18:55.154Z,8.20
2022-11-14T21:21:24.592Z,8.20
2022-11-14T21:23:51.975Z,8.20
2022-11-14T21:26:28.327Z,8.20
2022-11-14T21:28:57.651Z,8.20
2022-11-14T21:31:26.078Z,8.20
2022-11-14T21:33:56.736Z,8.20
2022-11-14T21:39:15.199Z,8.20
2022-11-14T21:41:48.494Z,8.20
2022-11-14T21:44:18.640Z,8.30
2022-11-14T21:46:49.769Z,8.30
2022-11-14T21:49:16.734Z,8.30
2022-11-14T21:51:43.622Z,8.30
2022-11-14T21:54:10.619Z,8.40
2022-11-14T21:56:37.801Z,8.40
2022-11-14T21:59:17.839Z,8.40
2022-11-14T22:02:08.435Z,8.40
2022-11-14T22:04:36.350Z,8.40
2022-11-14T22:07:05.759Z,8.50
2022-11-14T22:09:33.035Z,8.40
2022-11-14T22:12:03.096Z,8.50
2022-11-14T22:14:29.967Z,8.50
2022-11-14T22:16:58.104Z,8.50
2022-11-14T22:19:25.039Z,8.50
2022-11-14T22:21:52.109Z,8.50
2022-11-14T22:24:19.113Z,8.50
2022-11-14T22:26:46.046Z,8.50
2022-11-14T22:29:12.916Z,8.50
2022-11-14T22:31:39.771Z,8.50
2022-11-14T22:34:06.940Z,8.50
2022-11-14T22:36:34.025Z,8.50
2022-11-14T22:39:01.043Z,8.50
2022-11-14T22:41:33.590Z,8.50
2022-11-14T22:44:01.344Z,8.60
2022-11-14T22:46:28.283Z,8.60
2022-11-14T22:48:55.627Z,8.60
2022-11-14T22:51:28.141Z,8.70
2022-11-14T22:53:57.805Z,8.70
2022-11-14T22:56:27.627Z,8.70
2022-11-14T22:58:54.905Z,8.80
2022-11-14T23:01:23.358Z,8.80
2022-11-14T23:03:55.609Z,8.90
2022-11-14T23:06:23.763Z,8.90
2022-11-14T23:08:51.197Z,8.90
2022-11-14T23:11:21.025Z,8.90
2022-11-14T23:13:50.645Z,9.00
2022-11-14T23:16:26.203Z,9.00
2022-11-14T23:19:00.188Z,9.00
2022-11-14T23:21:35.559Z,9.10
2022-11-14T23:24:08.735Z,9.10
2022-11-14T23:26:35.655Z,9.10
2022-11-14T23:29:03.586Z,9.10
2022-11-14T23:31:30.455Z,9.20
2022-11-14T23:33:58.246Z,9.20
2022-11-14T23:36:25.420Z,9.20
2022-11-14T23:38:53.562Z,9.20
2022-11-14T23:41:22.895Z,9.30
2022-11-14T23:43:49.876Z,9.30
2022-11-14T23:46:17.741Z,9.40
2022-11-14T23:48:44.636Z,9.40
2022-11-14T23:51:13.741Z,9.50
2022-11-14T23:53:41.085Z,9.60
2022-11-14T23:56:13.391Z,9.70
2022-11-14T23:58:40.994Z,9.70
